Covington, Iowa
Current Conditions -  °F | °C
As of 1:52 AM on Monday 24 Nov 2014 (Local Time) from KCID Reporting Station
Haze Haze  
Wind Chill: 19°   Ceiling: 800
Heat Index: 33°   Visibility: 6mi
Dew Point: 32°   Wind: 31mph
Humidity: 96%   Direction: 320°NW
Pressure: 29.22"   Gusts: 40mph
Location:  42.0483°N, 91.7982°W
Report Text: KCID 240752Z AUTO 32027G35KT 6SM BR OVC008 01/00 A2922 RMK AO2 PK WND 31035/0751 CIG 006V011 SLP900 T00060000
Loading
Personal Weather Stations






























Interactive Weather Map New forecast layout! Learn more

10-Day Weather Forecast

Advertisements
Track Severe Weather on mobile